sensor_id;sensor_type;location;lat;lon;timestamp;pressure;altitude;pressure_sealevel;temperature;humidity
62926;BME280;55732;52.248;-0.844;2023-02-03T00:00:55;101776.60;;;9.48;76.76
62926;BME280;55732;52.248;-0.844;2023-02-03T00:03:21;101779.32;;;9.51;76.54
62926;BME280;55732;52.248;-0.844;2023-02-03T00:05:46;101779.73;;;9.53;76.53
62926;BME280;55732;52.248;-0.844;2023-02-03T00:08:14;101772.91;;;9.55;76.53
62926;BME280;55732;52.248;-0.844;2023-02-03T00:10:40;101770.66;;;9.57;76.52
62926;BME280;55732;52.248;-0.844;2023-02-03T00:13:07;101772.43;;;9.58;76.33
62926;BME280;55732;52.248;-0.844;2023-02-03T00:15:33;101782.32;;;9.59;76.46
62926;BME280;55732;52.248;-0.844;2023-02-03T00:17:59;101784.33;;;9.62;76.42
62926;BME280;55732;52.248;-0.844;2023-02-03T00:20:24;101781.73;;;9.64;76.44
62926;BME280;55732;52.248;-0.844;2023-02-03T00:22:50;101784.79;;;9.68;76.37
62926;BME280;55732;52.248;-0.844;2023-02-03T00:25:16;101791.70;;;9.70;76.43
62926;BME280;55732;52.248;-0.844;2023-02-03T00:27:41;101798.77;;;9.72;76.55
62926;BME280;55732;52.248;-0.844;2023-02-03T00:30:07;101810.42;;;9.73;76.51
62926;BME280;55732;52.248;-0.844;2023-02-03T00:32:33;101816.77;;;9.74;76.43
62926;BME280;55732;52.248;-0.844;2023-02-03T00:34:58;101820.98;;;9.74;76.46
62926;BME280;55732;52.248;-0.844;2023-02-03T00:37:23;101813.27;;;9.75;76.46
62926;BME280;55732;52.248;-0.844;2023-02-03T00:39:49;101814.88;;;9.76;76.47
62926;BME280;55732;52.248;-0.844;2023-02-03T00:42:14;101804.51;;;9.76;76.51
62926;BME280;55732;52.248;-0.844;2023-02-03T00:44:40;101799.60;;;9.77;76.55
62926;BME280;55732;52.248;-0.844;2023-02-03T00:47:06;101786.23;;;9.77;76.53
62926;BME280;55732;52.248;-0.844;2023-02-03T00:49:32;101786.76;;;9.76;76.41
62926;BME280;55732;52.248;-0.844;2023-02-03T00:51:58;101785.14;;;9.75;76.35
62926;BME280;55732;52.248;-0.844;2023-02-03T00:54:23;101788.61;;;9.73;76.52
62926;BME280;55732;52.248;-0.844;2023-02-03T00:56:48;101786.27;;;9.71;76.54
62926;BME280;55732;52.248;-0.844;2023-02-03T00:59:14;101780.36;;;9.66;76.59
62926;BME280;55732;52.248;-0.844;2023-02-03T01:01:39;101776.73;;;9.61;76.73
62926;BME280;55732;52.248;-0.844;2023-02-03T01:04:05;101769.58;;;9.55;76.88
62926;BME280;55732;52.248;-0.844;2023-02-03T01:06:30;101768.75;;;9.50;76.98
62926;BME280;55732;52.248;-0.844;2023-02-03T01:08:56;101764.92;;;9.44;77.22
62926;BME280;55732;52.248;-0.844;2023-02-03T01:11:24;101759.54;;;9.39;77.32
62926;BME280;55732;52.248;-0.844;2023-02-03T01:13:52;101758.02;;;9.34;77.50
62926;BME280;55732;52.248;-0.844;2023-02-03T01:16:19;101758.63;;;9.29;77.41
62926;BME280;55732;52.248;-0.844;2023-02-03T01:18:46;101758.33;;;9.24;77.44
62926;BME280;55732;52.248;-0.844;2023-02-03T01:21:16;101760.01;;;9.20;77.66
62926;BME280;55732;52.248;-0.844;2023-02-03T01:23:43;101757.45;;;9.16;77.81
62926;BME280;55732;52.248;-0.844;2023-02-03T01:26:12;101758.07;;;9.13;77.84
62926;BME280;55732;52.248;-0.844;2023-02-03T01:28:38;101749.73;;;9.11;78.09
62926;BME280;55732;52.248;-0.844;2023-02-03T01:31:15;101742.67;;;9.08;78.24
62926;BME280;55732;52.248;-0.844;2023-02-03T01:33:42;101737.86;;;9.05;78.23
62926;BME280;55732;52.248;-0.844;2023-02-03T01:36:11;101743.20;;;9.01;78.27
62926;BME280;55732;52.248;-0.844;2023-02-03T01:38:38;101745.05;;;8.98;78.49
62926;BME280;55732;52.248;-0.844;2023-02-03T01:41:06;101751.34;;;8.95;78.58
62926;BME280;55732;52.248;-0.844;2023-02-03T01:43:38;101752.14;;;8.93;78.68
62926;BME280;55732;52.248;-0.844;2023-02-03T01:48:46;101765.61;;;8.91;78.97
62926;BME280;55732;52.248;-0.844;2023-02-03T01:51:12;101772.13;;;8.91;79.04
62926;BME280;55732;52.248;-0.844;2023-02-03T01:53:37;101778.81;;;8.91;79.02
62926;BME280;55732;52.248;-0.844;2023-02-03T01:56:04;101782.68;;;8.92;79.13
62926;BME280;55732;52.248;-0.844;2023-02-03T01:58:32;101785.65;;;8.91;79.24
62926;BME280;55732;52.248;-0.844;2023-02-03T02:01:00;101782.83;;;8.91;79.22
62926;BME280;55732;52.248;-0.844;2023-02-03T02:03:33;101787.03;;;8.90;79.29
62926;BME280;55732;52.248;-0.844;2023-02-03T02:06:11;101789.11;;;8.89;79.46
62926;BME280;55732;52.248;-0.844;2023-02-03T02:08:39;101789.11;;;8.89;79.45
62926;BME280;55732;52.248;-0.844;2023-02-03T02:11:06;101787.17;;;8.89;79.55
62926;BME280;55732;52.248;-0.844;2023-02-03T02:13:34;101784.02;;;8.90;79.64
62926;BME280;55732;52.248;-0.844;2023-02-03T02:21:28;101780.70;;;8.83;79.72
62926;BME280;55732;52.248;-0.844;2023-02-03T02:24:40;101786.02;;;8.78;79.83
62926;BME280;55732;52.248;-0.844;2023-02-03T02:36:20;101784.61;;;8.71;80.65
62926;BME280;55732;52.248;-0.844;2023-02-03T02:38:47;101785.71;;;8.73;80.75
62926;BME280;55732;52.248;-0.844;2023-02-03T02:44:18;101791.57;;;8.76;80.92
62926;BME280;55732;52.248;-0.844;2023-02-03T02:46:53;101791.48;;;8.78;80.89
62926;BME280;55732;52.248;-0.844;2023-02-03T02:49:37;101789.48;;;8.83;80.97
62926;BME280;55732;52.248;-0.844;2023-02-03T02:52:07;101783.23;;;8.86;81.01
62926;BME280;55732;52.248;-0.844;2023-02-03T02:54:34;101783.31;;;8.90;80.88
62926;BME280;55732;52.248;-0.844;2023-02-03T02:57:03;101788.66;;;8.92;80.95
62926;BME280;55732;52.248;-0.844;2023-02-03T02:59:30;101791.21;;;8.96;80.94
62926;BME280;55732;52.248;-0.844;2023-02-03T03:01:56;101793.61;;;9.01;80.96
62926;BME280;55732;52.248;-0.844;2023-02-03T03:04:24;101793.38;;;9.05;80.88
62926;BME280;55732;52.248;-0.844;2023-02-03T03:06:59;101788.34;;;9.07;80.76
62926;BME280;55732;52.248;-0.844;2023-02-03T03:12:15;101787.83;;;9.08;80.67
62926;BME280;55732;52.248;-0.844;2023-02-03T03:14:44;101797.45;;;9.07;80.58
62926;BME280;55732;52.248;-0.844;2023-02-03T03:17:20;101798.67;;;9.06;80.56
62926;BME280;55732;52.248;-0.844;2023-02-03T03:19:50;101797.09;;;9.06;80.59
62926;BME280;55732;52.248;-0.844;2023-02-03T03:22:17;101794.94;;;9.04;80.56
62926;BME280;55732;52.248;-0.844;2023-02-03T03:24:49;101796.27;;;9.02;80.65
62926;BME280;55732;52.248;-0.844;2023-02-03T03:27:23;101789.66;;;8.97;80.58
62926;BME280;55732;52.248;-0.844;2023-02-03T03:30:02;101783.95;;;8.93;80.63
62926;BME280;55732;52.248;-0.844;2023-02-03T03:32:29;101781.73;;;8.89;80.73
62926;BME280;55732;52.248;-0.844;2023-02-03T03:34:58;101778.30;;;8.86;80.73
62926;BME280;55732;52.248;-0.844;2023-02-03T03:39:56;101788.14;;;8.86;80.98
62926;BME280;55732;52.248;-0.844;2023-02-03T03:42:47;101783.27;;;8.88;81.03
62926;BME280;55732;52.248;-0.844;2023-02-03T03:48:21;101782.44;;;8.96;81.08
62926;BME280;55732;52.248;-0.844;2023-02-03T03:50:52;101787.61;;;9.00;80.82
62926;BME280;55732;52.248;-0.844;2023-02-03T03:53:22;101776.94;;;9.01;80.95
62926;BME280;55732;52.248;-0.844;2023-02-03T03:55:49;101782.51;;;8.99;80.74
62926;BME280;55732;52.248;-0.844;2023-02-03T03:58:24;101794.21;;;8.96;80.76
62926;BME280;55732;52.248;-0.844;2023-02-03T04:00:55;101802.21;;;8.93;80.85
62926;BME280;55732;52.248;-0.844;2023-02-03T04:03:26;101803.02;;;8.90;80.87
62926;BME280;55732;52.248;-0.844;2023-02-03T04:05:52;101810.77;;;8.91;80.89
62926;BME280;55732;52.248;-0.844;2023-02-03T04:08:18;101822.45;;;8.94;80.94
62926;BME280;55732;52.248;-0.844;2023-02-03T04:10:43;101825.84;;;8.97;81.00
62926;BME280;55732;52.248;-0.844;2023-02-03T04:13:10;101826.64;;;9.01;81.01
62926;BME280;55732;52.248;-0.844;2023-02-03T04:15:36;101832.34;;;9.04;81.05
62926;BME280;55732;52.248;-0.844;2023-02-03T04:18:02;101830.12;;;9.06;81.03
62926;BME280;55732;52.248;-0.844;2023-02-03T04:20:29;101828.25;;;9.09;80.94
62926;BME280;55732;52.248;-0.844;2023-02-03T04:22:55;101830.25;;;9.12;80.91
62926;BME280;55732;52.248;-0.844;2023-02-03T04:25:20;101831.41;;;9.16;80.89
62926;BME280;55732;52.248;-0.844;2023-02-03T04:27:46;101832.39;;;9.20;80.75
62926;BME280;55732;52.248;-0.844;2023-02-03T04:30:12;101832.61;;;9.22;80.73
62926;BME280;55732;52.248;-0.844;2023-02-03T04:32:38;101832.17;;;9.25;80.70
62926;BME280;55732;52.248;-0.844;2023-02-03T04:35:05;101831.56;;;9.29;80.50
62926;BME280;55732;52.248;-0.844;2023-02-03T04:37:31;101838.10;;;9.30;80.52
62926;BME280;55732;52.248;-0.844;2023-02-03T04:39:57;101835.46;;;9.30;80.47
62926;BME280;55732;52.248;-0.844;2023-02-03T04:42:23;101826.47;;;9.29;80.27
62926;BME280;55732;52.248;-0.844;2023-02-03T04:44:49;101824.83;;;9.27;80.30
62926;BME280;55732;52.248;-0.844;2023-02-03T04:47:15;101826.85;;;9.24;80.28
62926;BME280;55732;52.248;-0.844;2023-02-03T04:49:41;101832.75;;;9.21;80.51
62926;BME280;55732;52.248;-0.844;2023-02-03T04:52:07;101831.99;;;9.18;80.43
62926;BME280;55732;52.248;-0.844;2023-02-03T04:54:32;101835.20;;;9.13;80.53
62926;BME280;55732;52.248;-0.844;2023-02-03T04:56:59;101832.98;;;9.09;80.54
62926;BME280;55732;52.248;-0.844;2023-02-03T04:59:24;101830.27;;;9.05;80.66
62926;BME280;55732;52.248;-0.844;2023-02-03T05:01:50;101831.95;;;9.02;80.84
62926;BME280;55732;52.248;-0.844;2023-02-03T05:04:15;101832.24;;;9.00;80.82
62926;BME280;55732;52.248;-0.844;2023-02-03T05:06:40;101830.44;;;8.99;80.90
62926;BME280;55732;52.248;-0.844;2023-02-03T05:09:06;101832.15;;;8.96;81.06
62926;BME280;55732;52.248;-0.844;2023-02-03T05:11:32;101836.71;;;8.96;81.05
62926;BME280;55732;52.248;-0.844;2023-02-03T05:13:57;101848.11;;;8.95;81.15
62926;BME280;55732;52.248;-0.844;2023-02-03T05:16:23;101854.91;;;8.93;81.15
62926;BME280;55732;52.248;-0.844;2023-02-03T05:18:48;101852.25;;;8.92;81.22
62926;BME280;55732;52.248;-0.844;2023-02-03T05:21:14;101857.50;;;8.91;81.39
62926;BME280;55732;52.248;-0.844;2023-02-03T05:23:40;101862.40;;;8.91;81.46
62926;BME280;55732;52.248;-0.844;2023-02-03T05:26:05;101860.11;;;8.91;81.46
62926;BME280;55732;52.248;-0.844;2023-02-03T05:28:31;101856.77;;;8.91;81.60
62926;BME280;55732;52.248;-0.844;2023-02-03T05:30:57;101851.48;;;8.90;81.63
62926;BME280;55732;52.248;-0.844;2023-02-03T05:33:23;101851.48;;;8.90;81.78
62926;BME280;55732;52.248;-0.844;2023-02-03T05:35:48;101859.02;;;8.90;82.00
62926;BME280;55732;52.248;-0.844;2023-02-03T05:38:14;101857.96;;;8.89;82.07
62926;BME280;55732;52.248;-0.844;2023-02-03T05:40:39;101861.99;;;8.89;82.14
62926;BME280;55732;52.248;-0.844;2023-02-03T05:43:23;101856.86;;;8.88;82.09
62926;BME280;55732;52.248;-0.844;2023-02-03T05:45:49;101849.52;;;8.89;82.15
62926;BME280;55732;52.248;-0.844;2023-02-03T05:48:14;101854.83;;;8.90;82.28
62926;BME280;55732;52.248;-0.844;2023-02-03T05:50:40;101858.02;;;8.92;82.31
62926;BME280;55732;52.248;-0.844;2023-02-03T05:53:06;101864.38;;;8.92;82.43
62926;BME280;55732;52.248;-0.844;2023-02-03T05:55:32;101866.20;;;8.95;82.48
62926;BME280;55732;52.248;-0.844;2023-02-03T05:57:57;101867.46;;;8.96;82.60
62926;BME280;55732;52.248;-0.844;2023-02-03T06:00:24;101865.53;;;8.96;82.75
62926;BME280;55732;52.248;-0.844;2023-02-03T06:02:54;101861.13;;;8.95;82.59
62926;BME280;55732;52.248;-0.844;2023-02-03T06:05:21;101861.12;;;8.95;82.63
62926;BME280;55732;52.248;-0.844;2023-02-03T06:07:47;101864.95;;;8.94;82.66
62926;BME280;55732;52.248;-0.844;2023-02-03T06:10:13;101869.68;;;8.94;82.74
62926;BME280;55732;52.248;-0.844;2023-02-03T06:12:39;101869.49;;;8.94;82.77
62926;BME280;55732;52.248;-0.844;2023-02-03T06:15:04;101866.14;;;8.93;82.87
62926;BME280;55732;52.248;-0.844;2023-02-03T06:17:30;101871.79;;;8.93;82.97
62926;BME280;55732;52.248;-0.844;2023-02-03T06:19:56;101869.99;;;8.92;83.05
62926;BME280;55732;52.248;-0.844;2023-02-03T06:22:21;101867.17;;;8.92;83.04
62926;BME280;55732;52.248;-0.844;2023-02-03T06:24:47;101871.02;;;8.92;83.07
62926;BME280;55732;52.248;-0.844;2023-02-03T06:27:15;101874.38;;;8.92;83.06
62926;BME280;55732;52.248;-0.844;2023-02-03T06:29:41;101879.80;;;8.91;83.20
62926;BME280;55732;52.248;-0.844;2023-02-03T06:32:07;101881.20;;;8.91;83.06
62926;BME280;55732;52.248;-0.844;2023-02-03T06:34:32;101890.48;;;8.90;83.23
62926;BME280;55732;52.248;-0.844;2023-02-03T06:36:58;101897.35;;;8.91;83.44
62926;BME280;55732;52.248;-0.844;2023-02-03T06:39:24;101900.85;;;8.90;83.34
62926;BME280;55732;52.248;-0.844;2023-02-03T06:41:49;101899.76;;;8.89;83.34
62926;BME280;55732;52.248;-0.844;2023-02-03T06:44:17;101903.22;;;8.88;83.36
62926;BME280;55732;52.248;-0.844;2023-02-03T06:46:43;101901.95;;;8.86;83.41
62926;BME280;55732;52.248;-0.844;2023-02-03T06:49:08;101898.77;;;8.85;83.48
62926;BME280;55732;52.248;-0.844;2023-02-03T06:51:34;101896.64;;;8.84;83.56
62926;BME280;55732;52.248;-0.844;2023-02-03T06:54:00;101894.51;;;8.83;83.75
62926;BME280;55732;52.248;-0.844;2023-02-03T06:56:25;101893.10;;;8.83;83.56
62926;BME280;55732;52.248;-0.844;2023-02-03T06:58:51;101897.98;;;8.81;83.75
62926;BME280;55732;52.248;-0.844;2023-02-03T07:01:16;101892.48;;;8.80;83.72
62926;BME280;55732;52.248;-0.844;2023-02-03T07:03:42;101892.11;;;8.79;83.93
62926;BME280;55732;52.248;-0.844;2023-02-03T07:06:07;101889.81;;;8.79;83.91
62926;BME280;55732;52.248;-0.844;2023-02-03T07:08:33;101893.51;;;8.78;83.91
62926;BME280;55732;52.248;-0.844;2023-02-03T07:11:00;101897.55;;;8.79;84.01
62926;BME280;55732;52.248;-0.844;2023-02-03T07:13:25;101897.37;;;8.79;83.90
62926;BME280;55732;52.248;-0.844;2023-02-03T07:15:51;101891.20;;;8.78;84.12
62926;BME280;55732;52.248;-0.844;2023-02-03T07:18:16;101886.63;;;8.77;84.21
62926;BME280;55732;52.248;-0.844;2023-02-03T07:20:43;101887.98;;;8.76;84.21
62926;BME280;55732;52.248;-0.844;2023-02-03T07:23:08;101895.32;;;8.75;84.16
62926;BME280;55732;52.248;-0.844;2023-02-03T07:25:34;101894.42;;;8.73;84.36
62926;BME280;55732;52.248;-0.844;2023-02-03T07:27:59;101900.56;;;8.74;84.28
62926;BME280;55732;52.248;-0.844;2023-02-03T07:30:24;101899.35;;;8.75;84.28
62926;BME280;55732;52.248;-0.844;2023-02-03T07:32:51;101897.13;;;8.76;84.33
62926;BME280;55732;52.248;-0.844;2023-02-03T07:35:17;101889.62;;;8.78;84.26
62926;BME280;55732;52.248;-0.844;2023-02-03T07:37:44;101891.77;;;8.79;84.29
62926;BME280;55732;52.248;-0.844;2023-02-03T07:40:11;101890.20;;;8.80;84.39
62926;BME280;55732;52.248;-0.844;2023-02-03T07:42:40;101891.10;;;8.80;84.46
62926;BME280;55732;52.248;-0.844;2023-02-03T07:45:07;101888.48;;;8.81;84.32
62926;BME280;55732;52.248;-0.844;2023-02-03T07:47:32;101892.73;;;8.82;84.14
62926;BME280;55732;52.248;-0.844;2023-02-03T07:49:58;101892.96;;;8.84;84.24
62926;BME280;55732;52.248;-0.844;2023-02-03T07:52:23;101897.73;;;8.86;84.32
62926;BME280;55732;52.248;-0.844;2023-02-03T07:54:48;101900.40;;;8.87;84.27
62926;BME280;55732;52.248;-0.844;2023-02-03T07:57:14;101897.79;;;8.88;84.19
62926;BME280;55732;52.248;-0.844;2023-02-03T07:59:39;101903.80;;;8.89;84.19
62926;BME280;55732;52.248;-0.844;2023-02-03T08:02:05;101902.79;;;8.91;84.12
62926;BME280;55732;52.248;-0.844;2023-02-03T08:04:30;101908.42;;;8.91;84.05
62926;BME280;55732;52.248;-0.844;2023-02-03T08:06:55;101911.44;;;8.92;84.01
62926;BME280;55732;52.248;-0.844;2023-02-03T08:09:21;101913.30;;;8.96;84.14
62926;BME280;55732;52.248;-0.844;2023-02-03T08:11:46;101922.67;;;8.99;83.93
62926;BME280;55732;52.248;-0.844;2023-02-03T08:14:12;101938.41;;;9.03;83.93
62926;BME280;55732;52.248;-0.844;2023-02-03T08:16:38;101950.45;;;9.05;83.86
62926;BME280;55732;52.248;-0.844;2023-02-03T08:19:03;101954.89;;;9.07;83.81
62926;BME280;55732;52.248;-0.844;2023-02-03T08:21:29;101958.27;;;9.09;83.77
62926;BME280;55732;52.248;-0.844;2023-02-03T08:23:56;101955.50;;;9.11;83.67
62926;BME280;55732;52.248;-0.844;2023-02-03T08:26:21;101954.52;;;9.13;83.59
62926;BME280;55732;52.248;-0.844;2023-02-03T08:28:48;101953.03;;;9.17;83.60
62926;BME280;55732;52.248;-0.844;2023-02-03T08:31:14;101951.58;;;9.22;83.50
62926;BME280;55732;52.248;-0.844;2023-02-03T08:33:39;101957.83;;;9.25;83.54
62926;BME280;55732;52.248;-0.844;2023-02-03T08:36:05;101962.00;;;9.30;83.40
62926;BME280;55732;52.248;-0.844;2023-02-03T08:38:31;101966.69;;;9.35;83.24
62926;BME280;55732;52.248;-0.844;2023-02-03T08:40:57;101974.15;;;9.38;83.04
62926;BME280;55732;52.248;-0.844;2023-02-03T08:43:22;101976.73;;;9.43;82.93
62926;BME280;55732;52.248;-0.844;2023-02-03T08:45:48;101973.26;;;9.45;82.88
62926;BME280;55732;52.248;-0.844;2023-02-03T08:48:13;101972.15;;;9.50;82.92
62926;BME280;55732;52.248;-0.844;2023-02-03T08:50:42;101973.87;;;9.54;82.83
62926;BME280;55732;52.248;-0.844;2023-02-03T08:53:09;101981.39;;;9.60;82.80
62926;BME280;55732;52.248;-0.844;2023-02-03T08:55:38;101986.61;;;9.64;82.58
62926;BME280;55732;52.248;-0.844;2023-02-03T08:58:04;101992.52;;;9.69;82.46
62926;BME280;55732;52.248;-0.844;2023-02-03T09:00:29;102001.73;;;9.71;82.37
62926;BME280;55732;52.248;-0.844;2023-02-03T09:02:54;102007.85;;;9.77;82.28
62926;BME280;55732;52.248;-0.844;2023-02-03T09:05:20;102008.16;;;9.83;82.16
62926;BME280;55732;52.248;-0.844;2023-02-03T09:07:46;102006.74;;;9.89;82.02
62926;BME280;55732;52.248;-0.844;2023-02-03T09:10:11;102013.80;;;9.97;81.86
62926;BME280;55732;52.248;-0.844;2023-02-03T09:12:37;102014.42;;;10.01;81.64
62926;BME280;55732;52.248;-0.844;2023-02-03T09:15:03;102024.11;;;10.09;81.56
62926;BME280;55732;52.248;-0.844;2023-02-03T09:17:28;102028.20;;;10.17;81.35
62926;BME280;55732;52.248;-0.844;2023-02-03T09:19:53;102034.20;;;10.25;81.20
62926;BME280;55732;52.248;-0.844;2023-02-03T09:22:19;102041.21;;;10.31;80.96
62926;BME280;55732;52.248;-0.844;2023-02-03T09:24:44;102050.16;;;10.37;81.02
62926;BME280;55732;52.248;-0.844;2023-02-03T09:27:10;102051.92;;;10.45;80.85
62926;BME280;55732;52.248;-0.844;2023-02-03T09:29:35;102058.57;;;10.51;80.59
62926;BME280;55732;52.248;-0.844;2023-02-03T09:32:01;102076.88;;;10.58;80.35
62926;BME280;55732;52.248;-0.844;2023-02-03T09:34:33;102084.25;;;10.65;80.16
62926;BME280;55732;52.248;-0.844;2023-02-03T09:36:58;102086.38;;;10.73;80.04
62926;BME280;55732;52.248;-0.844;2023-02-03T09:39:23;102085.70;;;10.82;79.76
62926;BME280;55732;52.248;-0.844;2023-02-03T09:47:12;102094.26;;;11.12;79.20
62926;BME280;55732;52.248;-0.844;2023-02-03T09:52:20;102102.07;;;11.32;78.45
62926;BME280;55732;52.248;-0.844;2023-02-03T09:57:55;102107.39;;;11.51;77.91
62926;BME280;55732;52.248;-0.844;2023-02-03T10:00:38;102112.11;;;11.58;77.75
62926;BME280;55732;52.248;-0.844;2023-02-03T10:06:09;102117.10;;;11.78;77.37
62926;BME280;55732;52.248;-0.844;2023-02-03T10:14:05;102131.59;;;11.98;76.59
62926;BME280;55732;52.248;-0.844;2023-02-03T10:19:15;102146.91;;;12.07;76.09
62926;BME280;55732;52.248;-0.844;2023-02-03T10:21:49;102154.80;;;12.12;75.88
62926;BME280;55732;52.248;-0.844;2023-02-03T10:24:22;102161.67;;;12.21;75.92
62926;BME280;55732;52.248;-0.844;2023-02-03T10:26:51;102156.73;;;12.32;75.77
62926;BME280;55732;52.248;-0.844;2023-02-03T10:29:19;102151.77;;;12.42;75.31
62926;BME280;55732;52.248;-0.844;2023-02-03T10:31:46;102144.27;;;12.48;75.07
62926;BME280;55732;52.248;-0.844;2023-02-03T10:34:14;102142.77;;;12.54;75.00
62926;BME280;55732;52.248;-0.844;2023-02-03T10:39:44;102146.45;;;12.64;74.56
62926;BME280;55732;52.248;-0.844;2023-02-03T10:42:11;102150.98;;;12.71;74.55
62926;BME280;55732;52.248;-0.844;2023-02-03T10:44:44;102152.04;;;12.82;74.38
62926;BME280;55732;52.248;-0.844;2023-02-03T10:47:33;102157.17;;;12.95;73.84
62926;BME280;55732;52.248;-0.844;2023-02-03T10:50:06;102167.59;;;13.06;73.63
62926;BME280;55732;52.248;-0.844;2023-02-03T10:52:35;102172.15;;;13.15;73.53
62926;BME280;55732;52.248;-0.844;2023-02-03T10:55:28;102175.67;;;13.26;73.23
62926;BME280;55732;52.248;-0.844;2023-02-03T10:57:55;102184.45;;;13.35;73.10
62926;BME280;55732;52.248;-0.844;2023-02-03T11:00:33;102189.67;;;13.41;72.91
62926;BME280;55732;52.248;-0.844;2023-02-03T11:03:42;102189.84;;;13.41;72.63
62926;BME280;55732;52.248;-0.844;2023-02-03T11:08:29;102189.55;;;13.47;72.25
62926;BME280;55732;52.248;-0.844;2023-02-03T11:11:01;102192.66;;;13.53;72.21
62926;BME280;55732;52.248;-0.844;2023-02-03T11:13:28;102193.98;;;13.61;71.94
62926;BME280;55732;52.248;-0.844;2023-02-03T11:21:10;102204.55;;;13.71;71.48
62926;BME280;55732;52.248;-0.844;2023-02-03T11:24:02;102213.22;;;13.71;71.27
62926;BME280;55732;52.248;-0.844;2023-02-03T11:26:39;102218.45;;;13.64;71.22
62926;BME280;55732;52.248;-0.844;2023-02-03T11:29:15;102223.02;;;13.62;71.29
62926;BME280;55732;52.248;-0.844;2023-02-03T11:31:46;102225.55;;;13.65;71.26
62926;BME280;55732;52.248;-0.844;2023-02-03T11:34:18;102225.51;;;13.62;71.03
62926;BME280;55732;52.248;-0.844;2023-02-03T11:36:45;102225.18;;;13.51;70.98
62926;BME280;55732;52.248;-0.844;2023-02-03T11:39:30;102218.58;;;13.47;71.13
62926;BME280;55732;52.248;-0.844;2023-02-03T11:42:00;102209.89;;;13.45;71.24
62926;BME280;55732;52.248;-0.844;2023-02-03T11:44:28;102206.92;;;13.49;71.36
62926;BME280;55732;52.248;-0.844;2023-02-03T11:47:01;102208.55;;;13.51;71.18
62926;BME280;55732;52.248;-0.844;2023-02-03T12:20:02;102219.05;;;13.70;70.72
62926;BME280;55732;52.248;-0.844;2023-02-03T12:22:42;102221.41;;;13.75;70.63
62926;BME280;55732;52.248;-0.844;2023-02-03T12:31:09;102235.44;;;13.64;70.61
62926;BME280;55732;52.248;-0.844;2023-02-03T12:33:49;102244.30;;;13.64;70.71
62926;BME280;55732;52.248;-0.844;2023-02-03T12:36:27;102244.83;;;13.64;70.87
62926;BME280;55732;52.248;-0.844;2023-02-03T12:39:01;102243.11;;;13.69;70.60
62926;BME280;55732;52.248;-0.844;2023-02-03T12:41:48;102239.60;;;13.72;70.60
62926;BME280;55732;52.248;-0.844;2023-02-03T12:44:27;102243.59;;;13.78;70.63
62926;BME280;55732;52.248;-0.844;2023-02-03T12:47:01;102248.40;;;13.81;70.52
62926;BME280;55732;52.248;-0.844;2023-02-03T12:49:55;102245.08;;;13.85;70.53
62926;BME280;55732;52.248;-0.844;2023-02-03T12:52:37;102245.10;;;13.87;70.44
62926;BME280;55732;52.248;-0.844;2023-02-03T12:57:57;102233.04;;;13.85;70.11
62926;BME280;55732;52.248;-0.844;2023-02-03T13:03:35;102227.98;;;13.76;70.22
62926;BME280;55732;52.248;-0.844;2023-02-03T13:08:42;102229.55;;;13.61;70.57
62926;BME280;55732;52.248;-0.844;2023-02-03T13:11:22;102225.67;;;13.62;70.60
62926;BME280;55732;52.248;-0.844;2023-02-03T13:13:55;102217.30;;;13.57;70.58
62926;BME280;55732;52.248;-0.844;2023-02-03T13:16:32;102216.95;;;13.58;70.49
62926;BME280;55732;52.248;-0.844;2023-02-03T13:19:06;102215.89;;;13.58;70.61
62926;BME280;55732;52.248;-0.844;2023-02-03T13:21:35;102215.03;;;13.60;70.68
62926;BME280;55732;52.248;-0.844;2023-02-03T13:24:02;102217.56;;;13.63;70.62
62926;BME280;55732;52.248;-0.844;2023-02-03T13:42:58;102219.67;;;13.92;69.62
62926;BME280;55732;52.248;-0.844;2023-02-03T13:45:47;102231.63;;;13.85;69.64
62926;BME280;55732;52.248;-0.844;2023-02-03T13:48:27;102234.06;;;13.83;69.87
62926;BME280;55732;52.248;-0.844;2023-02-03T13:51:30;102233.91;;;13.85;69.86
62926;BME280;55732;52.248;-0.844;2023-02-03T13:54:06;102237.33;;;13.88;69.80
62926;BME280;55732;52.248;-0.844;2023-02-03T13:56:33;102233.77;;;13.87;69.77
62926;BME280;55732;52.248;-0.844;2023-02-03T14:01:41;102229.45;;;13.82;69.83
62926;BME280;55732;52.248;-0.844;2023-02-03T14:07:02;102224.60;;;13.75;70.00
62926;BME280;55732;52.248;-0.844;2023-02-03T14:12:17;102228.84;;;13.74;70.26
62926;BME280;55732;52.248;-0.844;2023-02-03T14:14:57;102227.90;;;13.70;70.40
62926;BME280;55732;52.248;-0.844;2023-02-03T14:20:00;102228.08;;;13.68;70.80
62926;BME280;55732;52.248;-0.844;2023-02-03T14:22:27;102225.42;;;13.70;70.74
62926;BME280;55732;52.248;-0.844;2023-02-03T14:24:55;102223.29;;;13.70;70.71
62926;BME280;55732;52.248;-0.844;2023-02-03T14:27:25;102225.21;;;13.67;70.57
62926;BME280;55732;52.248;-0.844;2023-02-03T14:32:48;102224.22;;;13.59;70.70
62926;BME280;55732;52.248;-0.844;2023-02-03T14:35:17;102230.19;;;13.54;70.69
62926;BME280;55732;52.248;-0.844;2023-02-03T14:37:52;102234.91;;;13.51;70.81
62926;BME280;55732;52.248;-0.844;2023-02-03T14:40:40;102233.94;;;13.44;70.78
62926;BME280;55732;52.248;-0.844;2023-02-03T14:46:30;102234.44;;;13.29;71.22
62926;BME280;55732;52.248;-0.844;2023-02-03T14:56:43;102234.43;;;13.16;71.62
62926;BME280;55732;52.248;-0.844;2023-02-03T14:59:36;102232.22;;;13.13;71.66
62926;BME280;55732;52.248;-0.844;2023-02-03T15:04:30;102229.40;;;13.01;71.83
62926;BME280;55732;52.248;-0.844;2023-02-03T15:06:56;102231.09;;;12.95;72.02
62926;BME280;55732;52.248;-0.844;2023-02-03T15:09:38;102234.55;;;12.91;72.13
62926;BME280;55732;52.248;-0.844;2023-02-03T15:12:17;102239.23;;;12.85;72.15
62926;BME280;55732;52.248;-0.844;2023-02-03T15:14:43;102244.80;;;12.80;72.29
62926;BME280;55732;52.248;-0.844;2023-02-03T15:17:26;102246.14;;;12.76;72.47
62926;BME280;55732;52.248;-0.844;2023-02-03T15:19:52;102252.75;;;12.69;72.74
62926;BME280;55732;52.248;-0.844;2023-02-03T15:22:23;102249.43;;;12.60;72.75
62926;BME280;55732;52.248;-0.844;2023-02-03T15:25:15;102252.98;;;12.52;72.78
62926;BME280;55732;52.248;-0.844;2023-02-03T15:27:41;102251.39;;;12.41;73.19